Time;durP1;ratioP1;P1;durP2;ratioP2;P2;SDS_P1;SDS_P2;PMS_P1;PMS_P2;Temp;Humidity;BMP_temperature;BMP_pressure;BME280_temperature;BME280_humidity;BME280_pressure;Samples;Min_cycle;Max_cycle;Signal;HPM_P1;HPM_P2
2022/06/04 00:00:46;;;;;;;2.58;1.50;;;16.00;55.90;;;;;;5051667;28;20025;-70
2022/06/04 00:03:12;;;;;;;2.85;1.50;;;16.00;56.20;;;;;;5051959;28;20540;-71
2022/06/04 00:05:47;;;;;;;3.67;1.70;;;15.90;56.30;;;;;;5049741;28;20495;-70
2022/06/04 00:08:13;;;;;;;1.88;1.60;;;15.90;56.70;;;;;;5054503;28;20039;-71
2022/06/04 00:16:13;;;;;;;2.63;1.90;;;15.70;57.40;;;;;;5048219;28;20098;-71
2022/06/04 00:18:40;;;;;;;3.72;1.90;;;15.60;57.90;;;;;;5049807;28;20025;-72
2022/06/04 00:21:07;;;;;;;3.92;2.00;;;15.50;58.50;;;;;;5053383;28;20040;-71
2022/06/04 00:23:33;;;;;;;3.13;1.80;;;15.50;58.70;;;;;;5057395;28;20039;-70
2022/06/04 00:26:00;;;;;;;2.28;1.77;;;15.40;59.00;;;;;;5054491;28;20025;-71
2022/06/04 00:28:27;;;;;;;2.88;1.80;;;15.30;59.00;;;;;;5049765;28;20499;-72
2022/06/04 00:30:54;;;;;;;2.10;1.90;;;15.30;59.30;;;;;;5051557;28;20037;-71
2022/06/04 00:33:20;;;;;;;1.80;1.60;;;15.20;59.40;;;;;;5051993;28;20475;-69
2022/06/04 00:35:49;;;;;;;2.05;1.60;;;15.20;59.40;;;;;;5066768;28;20402;-70
2022/06/04 00:38:17;;;;;;;2.58;2.10;;;15.20;59.30;;;;;;5054352;28;20059;-70
2022/06/04 00:40:50;;;;;;;2.40;1.90;;;15.20;60.40;;;;;;5050227;28;20056;-70
2022/06/04 00:43:17;;;;;;;2.95;1.80;;;15.10;59.90;;;;;;5053031;28;20020;-69
2022/06/04 00:46:04;;;;;;;3.75;1.90;;;15.10;60.10;;;;;;5051525;28;20024;-70
2022/06/04 00:48:30;;;;;;;2.30;1.83;;;15.00;60.10;;;;;;5052338;28;20154;-69
2022/06/04 00:50:55;;;;;;;2.22;1.77;;;15.00;60.40;;;;;;5048528;28;20096;-69
2022/06/04 00:53:21;;;;;;;2.95;2.10;;;14.90;60.60;;;;;;5053366;28;20067;-70
2022/06/04 00:56:24;;;;;;;2.58;2.30;;;14.90;60.90;;;;;;5048457;28;20033;-69
2022/06/04 00:59:04;;;;;;;4.45;2.03;;;14.90;61.00;;;;;;5041192;28;20048;-70
2022/06/04 01:01:46;;;;;;;3.13;2.33;;;14.80;60.80;;;;;;5049915;28;20029;-70
2022/06/04 01:04:48;;;;;;;2.63;2.20;;;14.80;61.50;;;;;;5052862;28;20120;-70
2022/06/04 01:07:52;;;;;;;4.90;2.65;;;14.80;61.50;;;;;;5049168;28;20394;-71
2022/06/04 01:10:40;;;;;;;4.82;2.20;;;14.70;61.80;;;;;;5050158;28;20055;-70
2022/06/04 01:13:24;;;;;;;3.25;2.10;;;14.60;61.80;;;;;;5044219;28;20086;-71
2022/06/04 01:16:00;;;;;;;2.33;2.10;;;14.60;62.10;;;;;;5049123;28;20685;-70
2022/06/04 01:18:56;;;;;;;4.10;2.50;;;14.50;62.20;;;;;;5054637;28;20040;-70
2022/06/04 01:22:03;;;;;;;4.05;2.50;;;14.50;62.50;;;;;;5047152;28;20536;-70
2022/06/04 01:24:49;;;;;;;3.25;2.33;;;14.50;62.90;;;;;;5041728;28;20037;-68
2022/06/04 01:27:46;;;;;;;4.13;2.50;;;14.40;62.80;;;;;;5058070;28;20035;-69
2022/06/04 01:30:27;;;;;;;3.83;2.83;;;14.40;63.00;;;;;;5050992;28;20053;-70
2022/06/04 01:33:08;;;;;;;4.32;2.72;;;14.40;63.30;;;;;;5052343;28;20072;-69
2022/06/04 01:36:07;;;;;;;4.85;2.70;;;14.30;63.40;;;;;;5049141;28;20484;-70
2022/06/04 01:38:40;;;;;;;3.90;2.78;;;14.30;63.60;;;;;;5030512;28;20060;-68
2022/06/04 01:41:12;;;;;;;4.45;2.80;;;14.30;63.70;;;;;;5050875;28;20066;-69
2022/06/04 01:43:46;;;;;;;3.55;2.90;;;14.30;63.70;;;;;;5050701;28;20508;-70
2022/06/04 01:46:20;;;;;;;4.20;2.70;;;14.30;63.80;;;;;;5052439;28;20032;-69
2022/06/04 01:48:50;;;;;;;3.65;2.53;;;14.30;63.70;;;;;;5051216;28;20043;-69
2022/06/04 01:51:20;;;;;;;5.32;2.70;;;14.40;63.70;;;;;;5047038;28;20071;-69
2022/06/04 01:53:48;;;;;;;4.18;2.83;;;14.30;63.70;;;;;;5050251;28;20037;-69
2022/06/04 01:56:23;;;;;;;4.50;2.70;;;14.30;63.90;;;;;;5050275;28;20025;-69
2022/06/04 01:58:54;;;;;;;5.82;3.47;;;14.30;63.90;;;;;;5049931;28;20035;-70
2022/06/04 02:01:24;;;;;;;3.30;2.40;;;14.30;64.10;;;;;;5046549;28;20021;-70
2022/06/04 02:03:59;;;;;;;3.60;2.78;;;14.30;63.90;;;;;;5056572;28;20021;-70
2022/06/04 02:06:33;;;;;;;4.55;3.13;;;14.20;64.50;;;;;;5051261;28;20029;-70
2022/06/04 02:09:11;;;;;;;4.97;3.20;;;14.20;64.70;;;;;;5047756;28;20602;-70
2022/06/04 02:11:40;;;;;;;5.13;2.88;;;14.20;64.80;;;;;;5055275;28;20107;-70
2022/06/04 02:14:07;;;;;;;6.20;3.28;;;14.20;64.80;;;;;;5046878;28;20475;-70
2022/06/04 02:16:43;;;;;;;3.67;2.67;;;14.10;65.10;;;;;;5048489;28;20037;-69
2022/06/04 02:19:08;;;;;;;4.93;2.92;;;14.10;65.00;;;;;;5048442;28;20032;-69
2022/06/04 02:21:35;;;;;;;4.38;3.08;;;14.10;65.20;;;;;;5050249;28;20017;-68
2022/06/04 02:24:01;;;;;;;3.42;2.50;;;14.10;65.30;;;;;;5049305;28;20047;-69
2022/06/04 02:26:28;;;;;;;5.55;2.80;;;14.00;65.20;;;;;;5051023;28;20021;-69
2022/06/04 02:28:57;;;;;;;4.50;3.10;;;14.10;65.30;;;;;;5044726;28;20021;-70
2022/06/04 02:31:37;;;;;;;2.70;2.30;;;14.10;65.40;;;;;;5044342;28;20021;-69
2022/06/04 02:34:25;;;;;;;3.88;2.90;;;14.10;65.30;;;;;;5048872;28;20104;-69
2022/06/04 02:37:08;;;;;;;4.20;2.80;;;14.10;65.40;;;;;;5051136;28;20029;-69
2022/06/04 02:39:43;;;;;;;3.75;2.60;;;14.00;65.50;;;;;;5045521;28;20021;-69
2022/06/04 02:42:13;;;;;;;4.10;2.50;;;14.00;65.50;;;;;;5050207;28;20028;-70
2022/06/04 02:44:53;;;;;;;3.28;2.35;;;14.00;65.50;;;;;;5048744;28;20478;-70
2022/06/04 02:47:23;;;;;;;3.47;2.80;;;14.10;65.50;;;;;;5047696;28;20029;-69
2022/06/04 02:49:57;;;;;;;4.75;3.40;;;14.00;65.60;;;;;;5045478;28;20097;-69
2022/06/04 02:52:24;;;;;;;3.45;2.58;;;14.00;66.00;;;;;;5046140;28;20123;-69
2022/06/04 02:54:59;;;;;;;4.97;2.80;;;13.90;66.00;;;;;;5049418;28;20028;-70
2022/06/04 02:57:27;;;;;;;5.07;2.85;;;13.90;66.40;;;;;;5047031;28;20112;-69
2022/06/04 02:59:54;;;;;;;4.70;2.85;;;13.90;66.40;;;;;;5048382;28;20028;-70
2022/06/04 03:02:21;;;;;;;4.55;3.10;;;13.90;66.70;;;;;;5048312;28;20025;-71
2022/06/04 03:04:52;;;;;;;5.35;3.58;;;13.80;67.00;;;;;;5048159;28;20023;-71
2022/06/04 03:07:21;;;;;;;5.22;3.58;;;13.80;67.80;;;;;;5048189;28;20024;-70
2022/06/04 03:09:48;;;;;;;4.38;2.80;;;13.70;67.50;;;;;;5047143;28;20032;-70
2022/06/04 03:12:14;;;;;;;4.32;2.83;;;13.70;67.50;;;;;;5051094;28;20037;-70
2022/06/04 03:14:41;;;;;;;4.57;3.08;;;13.70;67.60;;;;;;5066751;28;20029;-70
2022/06/04 03:17:08;;;;;;;5.28;3.42;;;13.80;67.60;;;;;;5047162;28;20020;-70
2022/06/04 03:19:34;;;;;;;4.63;3.15;;;13.70;67.70;;;;;;5047727;28;20033;-70
2022/06/04 03:22:00;;;;;;;5.07;3.45;;;13.80;67.70;;;;;;5048244;28;20112;-70
2022/06/04 03:24:26;;;;;;;5.47;3.70;;;13.70;68.00;;;;;;5048157;28;20017;-69
2022/06/04 03:26:52;;;;;;;6.07;3.85;;;13.70;68.30;;;;;;5048564;28;20083;-69
2022/06/04 03:29:17;;;;;;;4.75;3.33;;;13.60;68.70;;;;;;5049272;28;20029;-69
2022/06/04 03:31:43;;;;;;;5.18;3.60;;;13.60;68.70;;;;;;5048974;28;20047;-69
2022/06/04 03:34:09;;;;;;;4.43;3.15;;;13.60;69.00;;;;;;5049681;28;20470;-70
2022/06/04 03:36:35;;;;;;;4.45;3.17;;;13.60;69.00;;;;;;5048090;28;20467;-69
2022/06/04 03:39:02;;;;;;;5.72;3.80;;;13.60;69.10;;;;;;5075749;28;20067;-70
2022/06/04 03:41:28;;;;;;;4.97;3.70;;;13.50;69.10;;;;;;5048118;28;20025;-71
2022/06/04 03:43:54;;;;;;;6.90;3.53;;;13.60;69.20;;;;;;5046775;28;20043;-71
2022/06/04 03:46:24;;;;;;;6.50;3.67;;;13.60;69.20;;;;;;5047917;28;20017;-70
2022/06/04 03:48:54;;;;;;;5.47;3.67;;;13.60;69.20;;;;;;5049121;28;20471;-70
2022/06/04 03:51:21;;;;;;;4.63;3.35;;;13.60;69.30;;;;;;5045526;28;20040;-70
2022/06/04 03:53:47;;;;;;;6.07;3.40;;;13.60;69.20;;;;;;5063269;28;20024;-69
2022/06/04 03:56:12;;;;;;;5.47;3.30;;;13.60;69.10;;;;;;5048137;28;20382;-69
2022/06/04 03:58:38;;;;;;;5.50;3.30;;;13.60;69.20;;;;;;5048674;28;20033;-69
2022/06/04 04:01:22;;;;;;;5.20;4.10;;;13.60;69.20;;;;;;5048951;28;20020;-69
2022/06/04 04:03:48;;;;;;;6.75;3.85;;;13.60;69.40;;;;;;5049057;28;20025;-70
2022/06/04 04:06:17;;;;;;;6.72;4.32;;;13.60;69.70;;;;;;5046210;28;20100;-70
2022/06/04 04:08:43;;;;;;;6.82;4.38;;;13.50;70.10;;;;;;5045452;28;20028;-69
2022/06/04 04:11:14;;;;;;;7.45;3.60;;;13.50;70.40;;;;;;5047427;28;20184;-70
2022/06/04 04:13:40;;;;;;;6.47;3.55;;;13.50;70.20;;;;;;5046547;28;20033;-69
2022/06/04 04:16:08;;;;;;;9.60;4.57;;;13.50;70.30;;;;;;5047767;28;20495;-70
2022/06/04 04:18:34;;;;;;;9.52;4.07;;;13.50;70.50;;;;;;5043628;28;20072;-69
2022/06/04 04:21:05;;;;;;;6.35;4.10;;;13.50;70.60;;;;;;5048231;28;20037;-70
2022/06/04 04:23:30;;;;;;;6.70;4.00;;;13.60;70.60;;;;;;5043176;28;20071;-69
2022/06/04 04:25:56;;;;;;;6.13;3.75;;;13.50;70.80;;;;;;5047657;28;20032;-69
2022/06/04 04:28:21;;;;;;;6.95;3.72;;;13.60;70.80;;;;;;5045153;28;20092;-69
2022/06/04 04:30:47;;;;;;;5.97;4.35;;;13.60;70.60;;;;;;5045138;28;20034;-69
2022/06/04 04:33:12;;;;;;;5.55;3.80;;;13.60;70.40;;;;;;5046448;28;20028;-70
2022/06/04 04:35:38;;;;;;;8.27;4.22;;;13.70;70.60;;;;;;5047642;28;20032;-71
2022/06/04 04:38:04;;;;;;;7.30;3.95;;;13.70;70.40;;;;;;5045764;28;20030;-70
2022/06/04 04:40:31;;;;;;;5.72;3.70;;;13.70;70.30;;;;;;5050100;28;20681;-70
2022/06/04 04:42:58;;;;;;;4.97;3.30;;;13.80;70.20;;;;;;5051703;28;20033;-69
2022/06/04 04:45:25;;;;;;;5.47;3.72;;;13.80;69.90;;;;;;5052457;28;20016;-70
2022/06/04 04:47:51;;;;;;;6.22;3.83;;;13.80;69.80;;;;;;5046474;28;20025;-69
2022/06/04 04:50:32;;;;;;;6.05;3.83;;;13.90;70.00;;;;;;5050486;28;20025;-71
2022/06/04 04:52:59;;;;;;;8.60;4.60;;;13.90;70.00;;;;;;5047735;28;20033;-70
2022/06/04 04:55:25;;;;;;;9.65;5.60;;;14.00;70.20;;;;;;5049228;28;20095;-70
2022/06/04 04:57:51;;;;;;;6.45;4.40;;;14.00;70.70;;;;;;5049647;28;20714;-71
2022/06/04 05:00:18;;;;;;;6.05;4.00;;;14.10;70.40;;;;;;5046104;28;20017;-70
2022/06/04 05:02:44;;;;;;;5.30;4.03;;;14.40;69.80;;;;;;5050076;28;20064;-70
2022/06/04 05:05:11;;;;;;;4.55;3.42;;;14.50;68.90;;;;;;5050860;28;20044;-71
2022/06/04 05:07:38;;;;;;;8.10;4.50;;;14.80;68.20;;;;;;5050507;28;20053;-69
2022/06/04 05:10:04;;;;;;;6.05;3.90;;;15.10;67.60;;;;;;5058695;28;20025;-69
2022/06/04 05:12:30;;;;;;;7.53;4.32;;;15.20;67.00;;;;;;5048539;28;20115;-70
2022/06/04 05:14:55;;;;;;;6.38;4.68;;;15.40;66.60;;;;;;5049253;28;20108;-70
2022/06/04 05:17:21;;;;;;;5.47;3.78;;;15.50;66.30;;;;;;5050859;28;20030;-71
2022/06/04 05:19:47;;;;;;;6.38;3.80;;;15.70;65.70;;;;;;5049520;28;20111;-69
2022/06/04 05:22:12;;;;;;;5.13;3.40;;;15.50;65.80;;;;;;5051155;28;20079;-68
2022/06/04 05:24:38;;;;;;;6.43;4.03;;;15.60;65.60;;;;;;5049838;28;20371;-68
2022/06/04 05:27:05;;;;;;;5.82;3.50;;;15.40;66.40;;;;;;5050338;28;20092;-69
2022/06/04 05:29:31;;;;;;;5.75;4.40;;;15.30;66.20;;;;;;5061758;28;20543;-71
2022/06/04 05:31:58;;;;;;;11.07;5.75;;;15.10;66.70;;;;;;5046254;28;20029;-71
2022/06/04 05:34:24;;;;;;;6.20;3.92;;;14.90;67.50;;;;;;5047478;28;20154;-71
2022/06/04 05:36:53;;;;;;;5.40;3.83;;;14.90;67.80;;;;;;5051458;28;20037;-70
2022/06/04 05:39:19;;;;;;;6.40;4.07;;;14.90;67.80;;;;;;5048634;28;20492;-70
2022/06/04 05:41:44;;;;;;;9.10;4.90;;;14.90;67.70;;;;;;5053954;28;20033;-69
2022/06/04 05:44:18;;;;;;;7.07;4.40;;;14.90;67.80;;;;;;5046995;28;20029;-69
2022/06/04 05:46:47;;;;;;;5.20;3.28;;;14.90;68.00;;;;;;5048554;28;20503;-69
2022/06/04 05:49:13;;;;;;;4.60;3.53;;;15.00;67.70;;;;;;5051257;28;20021;-71
2022/06/04 05:51:41;;;;;;;5.85;4.20;;;15.10;67.40;;;;;;5051824;28;20025;-69
2022/06/04 05:54:07;;;;;;;6.90;3.70;;;15.10;67.40;;;;;;5048817;28;20017;-71
2022/06/04 05:56:35;;;;;;;6.80;3.70;;;15.10;67.30;;;;;;5043991;28;21978;-71
2022/06/04 05:59:05;;;;;;;5.15;3.63;;;15.20;67.20;;;;;;5049969;28;20025;-70
2022/06/04 06:01:32;;;;;;;5.13;3.67;;;15.20;67.10;;;;;;5048233;28;20047;-69
2022/06/04 06:04:01;;;;;;;6.82;3.75;;;15.30;66.80;;;;;;5049582;28;20021;-69
2022/06/04 06:06:30;;;;;;;7.63;4.50;;;15.40;66.60;;;;;;5047136;28;20025;-70
2022/06/04 06:08:57;;;;;;;5.35;4.00;;;15.30;66.70;;;;;;5049243;28;20075;-70
2022/06/04 06:11:23;;;;;;;5.50;3.47;;;15.30;67.60;;;;;;5053193;28;20662;-70
2022/06/04 06:13:50;;;;;;;5.72;3.65;;;15.30;66.80;;;;;;5050134;28;20032;-70
2022/06/04 06:16:22;;;;;;;5.13;3.88;;;15.30;66.70;;;;;;5052778;28;20472;-69
2022/06/04 06:18:48;;;;;;;8.00;4.20;;;15.40;66.80;;;;;;5052961;28;20032;-70
2022/06/04 06:21:16;;;;;;;5.28;3.70;;;15.40;66.60;;;;;;5048556;28;20552;-71
2022/06/04 06:23:43;;;;;;;4.63;3.40;;;15.40;66.60;;;;;;5052233;28;20395;-70
2022/06/04 06:26:15;;;;;;;7.25;4.25;;;15.50;66.40;;;;;;5049077;28;20470;-71
2022/06/04 06:28:42;;;;;;;6.35;3.50;;;15.50;66.50;;;;;;5048938;28;20502;-71
2022/06/04 06:31:10;;;;;;;6.90;3.80;;;15.60;66.30;;;;;;5047023;28;20378;-71
2022/06/04 06:33:36;;;;;;;6.45;3.28;;;15.60;66.20;;;;;;5047230;28;20082;-71
2022/06/04 06:36:06;;;;;;;4.78;3.30;;;15.70;66.00;;;;;;5049339;28;20432;-71
2022/06/04 06:38:32;;;;;;;7.07;4.50;;;15.80;65.80;;;;;;5049135;28;20497;-70
2022/06/04 06:40:59;;;;;;;5.75;3.45;;;15.80;65.90;;;;;;5047890;28;20036;-71
2022/06/04 06:46:15;;;;;;;5.75;3.85;;;15.80;65.90;;;;;;5047222;28;20041;-71
2022/06/04 06:48:42;;;;;;;6.78;4.50;;;15.90;65.80;;;;;;5053564;28;20537;-71
2022/06/04 06:51:13;;;;;;;7.47;4.80;;;15.90;65.80;;;;;;5048117;28;20040;-71
2022/06/04 06:53:39;;;;;;;7.15;3.72;;;15.90;66.00;;;;;;5046606;28;20120;-70
2022/06/04 06:56:11;;;;;;;8.15;5.57;;;15.90;65.80;;;;;;5050024;28;20021;-71
2022/06/04 06:58:36;;;;;;;5.80;3.75;;;15.70;66.30;;;;;;5050633;28;20486;-70
2022/06/04 07:01:03;;;;;;;5.78;3.30;;;15.80;66.40;;;;;;5052481;28;20029;-70
2022/06/04 07:03:29;;;;;;;8.00;4.45;;;15.80;66.10;;;;;;5046749;28;20017;-70
2022/06/04 07:05:55;;;;;;;7.63;3.35;;;15.90;66.20;;;;;;5050248;28;20360;-70
2022/06/04 07:08:22;;;;;;;4.72;3.30;;;15.90;66.00;;;;;;5043451;28;20434;-69
2022/06/04 07:10:48;;;;;;;6.90;3.78;;;16.00;65.80;;;;;;5061852;28;20033;-70
2022/06/04 07:13:13;;;;;;;6.38;4.32;;;16.00;65.80;;;;;;5046380;28;20407;-69
2022/06/04 07:15:39;;;;;;;5.57;3.90;;;16.00;65.80;;;;;;5047198;28;20025;-69
2022/06/04 07:18:05;;;;;;;6.97;4.22;;;16.10;65.80;;;;;;5045077;28;20048;-69
2022/06/04 07:20:31;;;;;;;5.53;3.67;;;16.10;65.70;;;;;;5046678;28;20682;-71
2022/06/04 07:22:56;;;;;;;7.80;4.18;;;16.10;65.60;;;;;;5045800;28;20029;-70
2022/06/04 07:25:22;;;;;;;6.65;4.00;;;16.20;65.50;;;;;;5046836;28;20057;-70
2022/06/04 07:27:50;;;;;;;5.60;3.90;;;16.20;65.40;;;;;;5049115;28;20045;-70
2022/06/04 07:30:16;;;;;;;5.38;3.65;;;16.10;65.70;;;;;;5046428;28;20047;-70
2022/06/04 07:32:41;;;;;;;6.53;3.60;;;16.20;65.60;;;;;;5047360;28;20399;-70
2022/06/04 07:35:07;;;;;;;4.20;3.15;;;16.30;65.40;;;;;;5045343;28;20028;-71
2022/06/04 07:37:33;;;;;;;4.30;3.88;;;16.40;65.30;;;;;;5045889;28;20033;-70
2022/06/04 07:39:58;;;;;;;5.28;3.63;;;16.40;65.20;;;;;;5046171;28;20033;-71
2022/06/04 07:42:28;;;;;;;3.90;3.15;;;16.50;65.00;;;;;;5046147;28;20063;-72
2022/06/04 07:44:55;;;;;;;4.70;3.25;;;16.60;64.90;;;;;;5047601;28;20025;-71
2022/06/04 07:47:20;;;;;;;6.70;3.90;;;16.70;64.70;;;;;;5046287;28;20021;-70
2022/06/04 07:49:46;;;;;;;5.57;3.90;;;16.70;64.70;;;;;;5051225;28;20044;-71
2022/06/04 07:52:11;;;;;;;4.28;3.47;;;16.70;64.60;;;;;;5050851;28;20517;-72
2022/06/04 07:54:38;;;;;;;3.70;2.92;;;16.80;64.40;;;;;;5050936;28;20113;-70
2022/06/04 07:57:04;;;;;;;5.07;3.35;;;17.00;64.10;;;;;;5050042;28;20031;-70
2022/06/04 07:59:30;;;;;;;6.38;3.58;;;17.10;63.90;;;;;;5050637;28;20116;-71
2022/06/04 08:01:56;;;;;;;4.88;3.20;;;17.20;63.50;;;;;;5046972;28;20663;-71
2022/06/04 08:04:22;;;;;;;5.97;3.72;;;17.20;63.20;;;;;;5049372;28;20025;-71
2022/06/04 08:06:47;;;;;;;6.43;3.83;;;17.30;62.90;;;;;;5048069;28;20062;-72
2022/06/04 08:09:13;;;;;;;6.15;3.30;;;17.30;62.70;;;;;;5048933;28;20484;-69
2022/06/04 08:11:39;;;;;;;7.32;3.50;;;17.40;62.60;;;;;;5051384;28;20036;-70
2022/06/04 08:14:16;;;;;;;7.55;3.72;;;17.40;62.40;;;;;;5049523;28;20372;-70
2022/06/04 08:16:48;;;;;;;4.07;3.03;;;17.60;62.20;;;;;;5056936;28;20516;-71
2022/06/04 08:19:14;;;;;;;;;;;17.70;62.00;;;;;;5062878;28;20017;-71
2022/06/04 08:21:40;;;;;;;5.43;3.08;;;17.80;61.70;;;;;;5051772;28;19916;-71
2022/06/04 08:24:08;;;;;;;4.28;3.38;;;17.90;61.40;;;;;;5054605;28;20523;-70
2022/06/04 08:26:33;;;;;;;6.28;3.80;;;18.00;61.30;;;;;;5051428;28;20021;-70
2022/06/04 08:28:59;;;;;;;7.55;3.63;;;17.90;61.00;;;;;;5050675;28;20028;-70
2022/06/04 08:31:24;;;;;;;7.22;3.85;;;17.90;61.30;;;;;;5053081;28;20116;-70
2022/06/04 08:33:50;;;;;;;7.15;4.43;;;17.90;61.00;;;;;;5046540;28;20029;-72
2022/06/04 08:36:16;;;;;;;7.47;4.53;;;17.90;61.00;;;;;;5050787;28;20043;-71
2022/06/04 08:38:43;;;;;;;6.00;3.70;;;17.70;61.10;;;;;;5049360;28;20029;-72
2022/06/04 08:41:56;;;;;;;6.22;4.68;;;17.70;61.40;;;;;;5050833;28;20024;-72
2022/06/04 08:44:36;;;;;;;4.75;3.75;;;17.80;61.30;;;;;;4969650;28;20031;-71
2022/06/04 08:47:39;;;;;;;4.35;3.40;;;17.80;61.20;;;;;;4969428;28;20695;-70
2022/06/04 08:50:20;;;;;;;5.88;3.90;;;18.00;61.00;;;;;;5030784;28;20094;-69
2022/06/04 08:52:55;;;;;;;5.57;3.80;;;18.00;60.90;;;;;;5049877;28;20544;-71
2022/06/04 08:58:57;;;;;;;4.60;3.80;;;18.30;60.20;;;;;;5056906;28;20560;-71
2022/06/04 09:01:53;;;;;;;6.78;4.55;;;18.30;60.10;;;;;;5049003;28;20036;-70
2022/06/04 09:04:40;;;;;;;7.28;5.00;;;18.40;59.80;;;;;;5043762;28;20509;-70
2022/06/04 09:07:35;;;;;;;7.80;4.50;;;18.30;59.60;;;;;;5051509;28;20079;-71
2022/06/04 09:10:22;;;;;;;5.40;4.20;;;18.40;59.90;;;;;;5044975;28;20056;-70
2022/06/04 09:12:57;;;;;;;7.10;4.10;;;18.50;59.80;;;;;;5051296;28;20024;-71
2022/06/04 09:15:45;;;;;;;6.15;3.65;;;18.70;59.40;;;;;;5056190;28;20542;-71
2022/06/04 09:18:31;;;;;;;6.15;3.70;;;18.90;59.20;;;;;;5048149;28;20025;-70
2022/06/04 09:21:00;;;;;;;5.93;4.10;;;19.10;58.70;;;;;;5068266;28;20028;-71
2022/06/04 09:23:34;;;;;;;3.92;3.20;;;19.30;58.20;;;;;;5048776;28;20047;-70
2022/06/04 09:26:03;;;;;;;4.60;3.17;;;19.40;58.00;;;;;;5046992;28;20039;-73
2022/06/04 09:28:43;;;;;;;5.32;3.63;;;19.50;57.60;;;;;;5048725;28;20490;-70
2022/06/04 09:31:14;;;;;;;5.70;4.13;;;19.70;57.30;;;;;;5046984;28;20029;-71
2022/06/04 09:33:46;;;;;;;6.72;4.80;;;19.70;56.60;;;;;;5047527;28;20510;-71
2022/06/04 09:36:14;;;;;;;6.57;4.43;;;19.50;56.10;;;;;;5047657;28;20124;-71
2022/06/04 09:39:01;;;;;;;6.13;4.30;;;19.30;56.70;;;;;;5048238;28;20025;-70
2022/06/04 09:41:31;;;;;;;6.90;3.85;;;19.30;56.80;;;;;;5048325;28;20538;-71
2022/06/04 09:44:05;;;;;;;5.38;4.18;;;19.40;56.90;;;;;;5049004;28;20597;-70
2022/06/04 09:46:31;;;;;;;6.95;4.07;;;19.40;56.60;;;;;;5048959;28;20143;-71
2022/06/04 09:48:58;;;;;;;7.00;4.00;;;19.50;56.40;;;;;;5046758;28;20092;-71
2022/06/04 09:51:27;;;;;;;5.65;4.53;;;19.60;56.30;;;;;;5048050;28;20025;-69
2022/06/04 09:54:03;;;;;;;6.50;3.78;;;19.70;56.00;;;;;;5050429;28;20410;-70
2022/06/04 09:56:37;;;;;;;4.38;3.50;;;19.60;56.00;;;;;;5051579;28;20048;-70
2022/06/04 09:59:24;;;;;;;5.43;2.90;;;19.80;55.80;;;;;;5044911;28;20035;-70
2022/06/04 10:01:59;;;;;;;3.15;2.53;;;20.00;55.60;;;;;;5048963;28;20021;-71
2022/06/04 10:04:44;;;;;;;6.20;3.75;;;20.20;55.70;;;;;;5052285;28;20044;-70
2022/06/04 10:07:13;;;;;;;4.43;3.05;;;20.20;54.80;;;;;;5048290;28;20051;-70
2022/06/04 10:09:56;;;;;;;4.75;2.72;;;20.30;54.70;;;;;;5046959;28;20021;-70
2022/06/04 10:15:38;;;;;;;4.43;2.42;;;20.70;54.20;;;;;;5047967;28;20067;-70
2022/06/04 10:18:16;;;;;;;3.28;2.47;;;20.90;54.00;;;;;;5050197;28;21552;-70
2022/06/04 10:20:50;;;;;;;4.75;3.55;;;21.00;53.70;;;;;;5049749;28;20028;-71
2022/06/04 10:23:16;;;;;;;4.63;3.33;;;20.70;53.20;;;;;;5077516;28;20036;-70
2022/06/04 10:26:09;;;;;;;5.00;2.88;;;20.50;53.60;;;;;;5046999;28;20064;-70
2022/06/04 10:29:04;;;;;;;5.93;3.20;;;20.70;53.90;;;;;;5049444;28;20048;-71
2022/06/04 10:31:56;;;;;;;4.90;2.83;;;20.90;53.10;;;;;;5049005;28;20150;-71
2022/06/04 10:34:39;;;;;;;5.18;3.20;;;21.00;52.80;;;;;;5047790;28;20036;-71
2022/06/04 10:37:33;;;;;;;3.42;2.10;;;21.10;52.20;;;;;;5049501;28;20040;-70
2022/06/04 10:40:34;;;;;;;4.32;3.45;;;21.30;52.00;;;;;;5045283;28;20051;-71
2022/06/04 10:43:17;;;;;;;3.42;2.20;;;21.30;51.70;;;;;;5048440;28;20028;-71
2022/06/04 10:46:07;;;;;;;6.28;2.85;;;21.40;51.50;;;;;;5048082;28;20036;-71
2022/06/04 10:48:55;;;;;;;7.18;3.40;;;21.40;51.30;;;;;;5049063;28;20041;-71
2022/06/04 10:51:48;;;;;;;5.30;2.72;;;21.30;51.00;;;;;;5047123;28;20446;-70
2022/06/04 10:54:39;;;;;;;5.70;3.40;;;21.40;51.30;;;;;;5048346;28;20437;-72
2022/06/04 10:57:08;;;;;;;4.22;3.38;;;21.20;50.90;;;;;;5048059;28;20029;-71
2022/06/04 10:59:40;;;;;;;3.60;2.60;;;21.30;51.00;;;;;;5050461;28;20033;-70
2022/06/04 11:02:29;;;;;;;4.72;3.70;;;21.50;51.20;;;;;;5049518;28;20103;-71
2022/06/04 11:05:02;;;;;;;5.03;2.92;;;21.40;50.40;;;;;;5064262;28;20495;-71
2022/06/04 11:07:52;;;;;;;3.45;2.78;;;21.50;50.90;;;;;;5048525;28;20078;-71
2022/06/04 11:10:30;;;;;;;4.20;2.72;;;21.60;51.10;;;;;;5043727;28;20043;-70
2022/06/04 11:13:08;;;;;;;4.85;2.72;;;21.70;50.90;;;;;;5048130;28;20025;-70
2022/06/04 11:15:39;;;;;;;5.38;3.00;;;22.00;50.80;;;;;;5053902;28;20036;-71
2022/06/04 11:18:26;;;;;;;4.75;2.50;;;22.00;50.40;;;;;;5049248;28;20021;-70
2022/06/04 11:21:04;;;;;;;3.08;2.30;;;22.10;50.40;;;;;;5047980;28;20044;-71
2022/06/04 11:24:02;;;;;;;3.78;2.90;;;22.30;50.20;;;;;;5047311;28;20029;-71
2022/06/04 11:26:55;;;;;;;4.50;2.95;;;22.20;49.80;;;;;;5047998;28;20021;-71
2022/06/04 11:29:21;;;;;;;4.25;2.50;;;22.20;50.10;;;;;;5048151;28;20028;-71
2022/06/04 11:32:25;;;;;;;4.93;3.08;;;22.40;50.20;;;;;;5048696;28;20487;-71
2022/06/04 11:35:20;;;;;;;3.40;2.78;;;22.50;49.60;;;;;;5047615;28;20556;-70
2022/06/04 11:38:31;;;;;;;6.05;3.60;;;22.50;49.30;;;;;;5045066;28;20090;-71
2022/06/04 11:41:12;;;;;;;5.30;3.40;;;22.40;49.30;;;;;;5047638;28;20044;-70
2022/06/04 11:44:00;;;;;;;5.75;3.50;;;22.40;49.20;;;;;;5047923;28;20033;-71
2022/06/04 11:46:31;;;;;;;4.90;3.53;;;22.40;48.80;;;;;;5046105;28;20021;-71
2022/06/04 11:49:27;;;;;;;3.47;2.53;;;22.50;48.70;;;;;;5048300;28;20403;-70
2022/06/04 11:52:15;;;;;;;3.25;2.40;;;22.90;48.60;;;;;;5047228;28;20705;-70
2022/06/04 11:55:13;;;;;;;4.65;3.33;;;23.30;48.20;;;;;;5044594;28;20025;-70
2022/06/04 11:57:55;;;;;;;4.68;3.20;;;23.40;47.00;;;;;;5039371;28;20045;-70
2022/06/04 12:00:29;;;;;;;7.43;3.50;;;23.30;47.20;;;;;;5065666;28;20029;-71
2022/06/04 12:03:01;;;;;;;5.32;3.67;;;23.20;46.60;;;;;;5043890;28;20324;-71
2022/06/04 12:05:53;;;;;;;5.00;3.72;;;23.30;46.50;;;;;;5047315;28;20017;-70
2022/06/04 12:08:27;;;;;;;7.00;4.00;;;23.20;46.80;;;;;;5047296;28;20049;-71
2022/06/04 12:11:13;;;;;;;5.57;3.53;;;23.00;46.90;;;;;;5046180;28;20040;-70
2022/06/04 12:13:58;;;;;;;8.30;4.00;;;23.00;47.30;;;;;;5047025;28;20033;-71
2022/06/04 12:16:42;;;;;;;5.50;3.00;;;23.10;47.00;;;;;;5048411;28;20021;-69
2022/06/04 12:25:13;;;;;;;2.90;2.28;;;23.60;46.10;;;;;;5046638;28;20559;-70
2022/06/04 12:27:59;;;;;;;5.78;2.58;;;23.90;46.30;;;;;;5045930;28;20040;-70
2022/06/04 12:30:40;;;;;;;5.03;3.28;;;24.20;45.80;;;;;;5045458;28;20040;-70
2022/06/04 12:33:23;;;;;;;4.32;3.50;;;24.00;45.30;;;;;;5045888;28;20033;-70
2022/06/04 12:35:55;;;;;;;5.18;2.97;;;23.80;45.70;;;;;;5060164;28;20064;-69
2022/06/04 12:38:22;;;;;;;5.60;3.40;;;23.80;46.20;;;;;;5045613;28;20017;-70
2022/06/04 12:40:48;;;;;;;5.13;3.03;;;23.50;46.40;;;;;;5045640;28;20524;-70
2022/06/04 12:43:14;;;;;;;7.10;3.00;;;23.60;47.00;;;;;;5044605;28;20356;-70
2022/06/04 12:45:43;;;;;;;5.15;3.78;;;23.50;47.00;;;;;;5046927;28;20099;-71
2022/06/04 12:48:39;;;;;;;3.63;2.97;;;23.70;46.30;;;;;;5046891;28;20021;-69
2022/06/04 12:51:15;;;;;;;6.20;3.65;;;23.80;46.30;;;;;;5044964;28;20041;-70
2022/06/04 12:54:00;;;;;;;5.53;3.30;;;24.10;45.90;;;;;;5044354;28;20079;-70
2022/06/04 12:56:30;;;;;;;5.10;3.17;;;24.00;45.90;;;;;;5047083;28;20025;-71
2022/06/04 12:58:58;;;;;;;3.83;2.95;;;24.20;45.80;;;;;;5050423;28;20587;-70
2022/06/04 13:01:30;;;;;;;3.05;2.75;;;24.30;45.50;;;;;;5051393;28;20017;-70
2022/06/04 13:04:11;;;;;;;4.38;2.78;;;24.60;44.90;;;;;;5048989;28;20033;-70
2022/06/04 13:06:49;;;;;;;4.55;3.17;;;24.80;44.50;;;;;;5048983;28;20052;-70
2022/06/04 13:09:21;;;;;;;4.18;2.80;;;24.80;44.80;;;;;;5047277;28;20032;-70
2022/06/04 13:11:52;;;;;;;3.85;2.75;;;24.90;44.30;;;;;;5049343;28;20505;-70
2022/06/04 13:14:48;;;;;;;5.47;2.50;;;25.10;43.70;;;;;;5046568;28;20387;-69
2022/06/04 13:17:18;;;;;;;3.80;2.50;;;25.40;43.60;;;;;;5047152;28;20056;-69
2022/06/04 13:20:15;;;;;;;4.57;3.40;;;25.80;43.00;;;;;;5047962;28;20025;-69
2022/06/04 13:22:55;;;;;;;3.72;2.30;;;25.50;42.50;;;;;;5046000;28;20033;-70
2022/06/04 13:25:50;;;;;;;2.72;2.25;;;25.40;43.00;;;;;;5047175;28;20507;-69
2022/06/04 13:28:32;;;;;;;5.13;3.40;;;25.60;42.80;;;;;;5043587;28;20578;-70
2022/06/04 13:31:02;;;;;;;4.68;2.70;;;25.30;42.20;;;;;;5044293;28;20028;-70
2022/06/04 13:33:29;;;;;;;2.95;2.40;;;25.20;42.90;;;;;;5049513;28;20033;-70
2022/06/04 13:35:57;;;;;;;2.33;2.10;;;25.40;43.00;;;;;;5045622;28;20036;-71
2022/06/04 13:38:40;;;;;;;5.25;3.15;;;25.70;42.90;;;;;;5045331;28;20024;-72
2022/06/04 13:44:07;;;;;;;2.95;2.38;;;25.50;42.50;;;;;;5025996;28;20052;-71